Time;durP1;ratioP1;P1;durP2;ratioP2;P2;SDS_P1;SDS_P2;PMS_P1;PMS_P2;Temp;Humidity;BMP_temperature;BMP_pressure;BME280_temperature;BME280_humidity;BME280_pressure;Samples;Min_cycle;Max_cycle;Signal;HPM_P1;HPM_P2
2023/07/04 00:01:12;;;;;;;5.47;2.10;;;25.80;47.90;;;;;;5062555;28;20449;-47
2023/07/04 00:03:39;;;;;;;2.73;2.17;;;25.80;47.70;;;;;;5071438;28;20484;-47
2023/07/04 00:06:06;;;;;;;3.30;2.30;;;25.90;47.30;;;;;;5066582;28;20520;-47
2023/07/04 00:08:36;;;;;;;2.30;2.10;;;26.00;46.90;;;;;;5075232;28;22594;-49
2023/07/04 00:11:03;;;;;;;2.97;2.03;;;26.10;46.90;;;;;;5065460;28;20502;-47
2023/07/04 00:13:30;;;;;;;3.17;2.10;;;26.10;46.40;;;;;;5063554;28;20942;-51
2023/07/04 00:15:56;;;;;;;2.63;1.73;;;26.20;46.50;;;;;;5072217;28;20480;-47
2023/07/04 00:18:24;;;;;;;2.80;1.93;;;26.30;46.30;;;;;;5073092;28;20493;-50
2023/07/04 00:20:54;;;;;;;2.67;2.20;;;26.40;46.10;;;;;;5066119;28;20456;-49
2023/07/04 00:23:33;;;;;;;2.80;2.00;;;26.40;45.80;;;;;;5062286;28;20887;-48
2023/07/04 00:25:59;;;;;;;2.23;2.03;;;26.50;45.70;;;;;;5068090;28;20453;-48
2023/07/04 00:28:26;;;;;;;7.87;2.70;;;26.50;45.60;;;;;;5065739;28;21343;-47
2023/07/04 00:30:54;;;;;;;3.73;2.10;;;26.60;45.50;;;;;;5061032;28;21280;-50
2023/07/04 00:33:20;;;;;;;2.80;2.17;;;26.60;45.60;;;;;;5073722;28;20437;-50
2023/07/04 00:35:46;;;;;;;2.60;2.20;;;26.50;46.30;;;;;;5060485;28;20431;-48
2023/07/04 00:38:13;;;;;;;3.00;2.73;;;26.50;45.80;;;;;;5066360;28;20549;-48
2023/07/04 00:40:39;;;;;;;6.43;2.10;;;26.50;45.60;;;;;;5067814;28;20203;-47
2023/07/04 00:43:08;;;;;;;2.30;2.10;;;26.50;46.00;;;;;;5066182;28;20494;-50
2023/07/04 00:45:42;;;;;;;2.07;1.87;;;26.60;45.60;;;;;;5062328;28;20200;-46
2023/07/04 00:48:13;;;;;;;3.33;2.50;;;26.60;45.50;;;;;;5055718;28;20936;-48
2023/07/04 00:50:43;;;;;;;2.60;1.90;;;26.60;45.30;;;;;;5063077;28;20483;-47
2023/07/04 00:53:12;;;;;;;2.10;1.70;;;26.60;45.40;;;;;;5064931;28;20441;-51
2023/07/04 00:55:43;;;;;;;1.80;1.70;;;26.70;45.40;;;;;;5060825;28;20608;-48
2023/07/04 00:58:09;;;;;;;2.13;1.87;;;26.60;45.40;;;;;;5061644;28;20564;-47
2023/07/04 01:00:37;;;;;;;2.80;2.00;;;26.70;45.30;;;;;;5062446;28;21091;-50
2023/07/04 01:03:15;;;;;;;2.27;1.90;;;26.60;45.30;;;;;;5056677;28;20486;-48
2023/07/04 01:06:14;;;;;;;4.20;2.17;;;26.70;45.20;;;;;;5072812;28;21026;-48
2023/07/04 01:08:43;;;;;;;3.03;1.73;;;26.70;45.20;;;;;;5058211;28;20486;-47
2023/07/04 01:11:19;;;;;;;2.43;2.00;;;26.60;45.80;;;;;;5064102;28;20439;-51
2023/07/04 01:13:45;;;;;;;2.70;2.40;;;26.30;46.70;;;;;;5066336;28;20961;-52
2023/07/04 01:16:14;;;;;;;1.93;1.73;;;26.30;46.60;;;;;;5069936;28;20445;-46
2023/07/04 01:18:42;;;;;;;2.20;2.07;;;26.10;46.80;;;;;;5068285;28;20489;-47
2023/07/04 01:21:10;;;;;;;2.30;2.00;;;26.10;47.00;;;;;;5058987;28;20465;-47
2023/07/04 01:23:51;;;;;;;6.43;1.90;;;26.20;46.80;;;;;;5069087;28;20521;-47
2023/07/04 01:26:43;;;;;;;2.37;2.17;;;26.20;46.80;;;;;;5067183;28;21036;-47
2023/07/04 01:29:12;;;;;;;1.87;1.70;;;26.30;46.40;;;;;;5072238;28;20790;-47
2023/07/04 01:31:40;;;;;;;2.57;1.97;;;26.30;46.40;;;;;;5065192;28;20451;-47
2023/07/04 01:34:08;;;;;;;4.53;2.40;;;26.30;47.20;;;;;;5062555;28;20564;-47
2023/07/04 01:36:41;;;;;;;2.80;2.20;;;26.20;47.00;;;;;;5069551;28;20847;-52
2023/07/04 01:39:12;;;;;;;2.40;2.10;;;26.10;47.70;;;;;;5061953;28;20490;-48
2023/07/04 01:41:39;;;;;;;2.67;1.97;;;25.80;48.60;;;;;;5066822;28;20625;-49
2023/07/04 01:44:06;;;;;;;2.50;2.00;;;25.80;48.00;;;;;;5062011;28;20443;-48
2023/07/04 01:46:34;;;;;;;2.33;2.17;;;25.90;47.80;;;;;;5055815;28;21139;-49
2023/07/04 01:49:00;;;;;;;3.43;2.53;;;26.00;47.60;;;;;;5074946;28;20447;-47
2023/07/04 01:51:28;;;;;;;2.60;2.10;;;26.10;47.60;;;;;;5082586;28;20433;-51
2023/07/04 01:53:54;;;;;;;2.30;1.77;;;26.20;47.40;;;;;;5066563;28;20439;-49
2023/07/04 01:56:19;;;;;;;2.30;2.10;;;26.30;47.10;;;;;;5066621;28;20466;-48
2023/07/04 01:58:45;;;;;;;3.40;2.43;;;26.30;47.60;;;;;;5074637;28;21119;-50
2023/07/04 02:01:11;;;;;;;2.30;2.10;;;26.30;47.40;;;;;;5072511;28;20265;-47
2023/07/04 02:03:36;;;;;;;2.40;1.83;;;26.30;47.00;;;;;;5065982;28;20191;-47
2023/07/04 02:06:02;;;;;;;3.63;2.00;;;26.40;46.80;;;;;;5063720;28;20204;-46
2023/07/04 02:08:28;;;;;;;2.37;2.17;;;26.40;46.90;;;;;;5066133;28;20192;-51
2023/07/04 02:10:53;;;;;;;3.47;2.50;;;26.40;47.40;;;;;;5057984;28;20538;-51
2023/07/04 02:13:19;;;;;;;2.80;2.20;;;26.30;47.80;;;;;;5072654;28;20426;-51
2023/07/04 02:15:45;;;;;;;3.40;2.33;;;26.20;48.40;;;;;;5059580;28;20208;-52
2023/07/04 02:18:10;;;;;;;2.67;2.47;;;26.10;48.00;;;;;;5066382;28;20236;-49
2023/07/04 02:20:36;;;;;;;3.43;2.03;;;26.10;48.70;;;;;;5073286;28;20188;-50
2023/07/04 02:23:01;;;;;;;3.20;2.50;;;26.10;48.00;;;;;;5063136;28;20268;-50
2023/07/04 02:25:27;;;;;;;2.13;1.93;;;26.00;48.80;;;;;;5061803;28;20190;-49
2023/07/04 02:27:53;;;;;;;5.53;1.93;;;25.80;49.10;;;;;;5067949;28;20672;-48
2023/07/04 02:30:18;;;;;;;2.90;1.97;;;25.80;48.70;;;;;;5070512;28;20558;-49
2023/07/04 02:32:44;;;;;;;5.20;2.40;;;25.90;48.20;;;;;;5073957;28;20276;-50
2023/07/04 02:35:10;;;;;;;2.50;2.30;;;26.10;47.90;;;;;;5067046;28;20643;-50
2023/07/04 02:37:35;;;;;;;2.40;2.20;;;26.20;47.60;;;;;;5062931;28;20709;-50
2023/07/04 02:40:01;;;;;;;2.33;1.80;;;26.30;47.40;;;;;;5070795;28;20267;-49
2023/07/04 02:42:27;;;;;;;3.67;2.20;;;26.40;47.20;;;;;;5077013;28;20195;-51
2023/07/04 02:44:52;;;;;;;2.40;2.20;;;26.40;47.10;;;;;;5067909;28;20565;-51
2023/07/04 02:47:18;;;;;;;6.67;2.10;;;26.40;47.50;;;;;;5071334;28;20187;-47
2023/07/04 02:49:44;;;;;;;3.60;2.23;;;26.40;47.30;;;;;;5074190;28;20205;-48
2023/07/04 02:52:10;;;;;;;4.13;2.57;;;26.10;48.80;;;;;;5088408;28;20754;-50
2023/07/04 02:54:35;;;;;;;3.80;2.90;;;25.80;49.80;;;;;;5080810;28;20286;-47
2023/07/04 02:57:01;;;;;;;3.50;2.60;;;25.30;51.20;;;;;;5075123;28;20526;-47
2023/07/04 02:59:27;;;;;;;3.07;2.77;;;24.60;52.60;;;;;;5081328;28;20633;-49
2023/07/04 03:01:53;;;;;;;3.00;2.47;;;24.30;53.80;;;;;;5071002;28;20188;-47
2023/07/04 03:04:19;;;;;;;2.90;2.03;;;24.00;54.50;;;;;;5078151;28;20194;-47
2023/07/04 03:06:45;;;;;;;3.63;2.23;;;24.00;54.50;;;;;;5080968;28;20456;-47
2023/07/04 03:09:11;;;;;;;3.03;2.70;;;23.80;55.10;;;;;;5075973;28;20523;-47
2023/07/04 03:11:36;;;;;;;3.97;3.00;;;23.80;55.00;;;;;;5075947;28;20219;-48
2023/07/04 03:14:02;;;;;;;2.60;2.37;;;24.00;54.70;;;;;;5079918;28;20282;-47
2023/07/04 03:16:28;;;;;;;2.63;2.43;;;24.10;54.50;;;;;;5080074;28;20195;-48
2023/07/04 03:18:53;;;;;;;2.63;2.40;;;24.10;54.20;;;;;;5070661;28;20227;-48
2023/07/04 03:21:20;;;;;;;4.30;2.60;;;23.90;54.90;;;;;;5066218;28;20271;-48
2023/07/04 03:23:46;;;;;;;4.33;2.60;;;23.60;55.50;;;;;;5070123;28;20685;-48
2023/07/04 03:26:12;;;;;;;5.40;2.90;;;23.50;56.10;;;;;;5072861;28;20414;-47
2023/07/04 03:28:38;;;;;;;4.70;2.40;;;23.40;56.20;;;;;;5072847;28;20228;-47
2023/07/04 03:31:04;;;;;;;12.80;3.33;;;23.30;56.50;;;;;;5071126;28;20226;-51
2023/07/04 03:33:30;;;;;;;3.13;2.47;;;23.20;56.80;;;;;;5076674;28;20434;-47
2023/07/04 03:35:57;;;;;;;2.90;2.60;;;23.10;57.30;;;;;;5070231;28;20184;-47
2023/07/04 03:38:23;;;;;;;3.20;2.90;;;23.00;57.30;;;;;;5065424;28;20220;-50
2023/07/04 03:40:49;;;;;;;2.77;2.37;;;22.80;57.80;;;;;;5068819;28;20488;-46
2023/07/04 03:43:14;;;;;;;3.97;2.40;;;22.90;57.60;;;;;;5061434;28;20216;-47
2023/07/04 03:45:40;;;;;;;3.60;2.43;;;22.90;57.50;;;;;;5061921;28;20314;-47
2023/07/04 03:48:05;;;;;;;4.27;2.83;;;22.90;57.70;;;;;;5066427;28;20183;-48
2023/07/04 03:50:31;;;;;;;3.83;1.97;;;23.00;57.50;;;;;;5057527;28;20206;-47
2023/07/04 03:52:56;;;;;;;3.40;3.10;;;23.00;57.20;;;;;;5080695;28;20188;-47
2023/07/04 03:55:22;;;;;;;3.77;2.33;;;23.10;57.00;;;;;;5058868;28;20572;-48
2023/07/04 03:57:47;;;;;;;2.67;2.20;;;23.20;56.70;;;;;;5069328;28;20234;-47
2023/07/04 04:00:13;;;;;;;3.97;2.47;;;23.30;56.50;;;;;;5066703;28;20613;-46
2023/07/04 04:02:39;;;;;;;5.30;2.60;;;23.20;56.60;;;;;;5061318;28;20310;-46
2023/07/04 04:05:04;;;;;;;2.20;2.00;;;23.30;56.50;;;;;;5060304;28;20197;-50
2023/07/04 04:07:30;;;;;;;2.27;2.03;;;23.30;56.40;;;;;;5076645;28;20231;-49
2023/07/04 04:09:56;;;;;;;4.40;2.53;;;23.10;57.10;;;;;;5068614;28;20188;-50
2023/07/04 04:12:21;;;;;;;4.03;2.20;;;22.80;57.50;;;;;;5062723;28;20197;-49
2023/07/04 04:14:47;;;;;;;2.60;2.20;;;22.80;57.80;;;;;;5083448;28;20566;-46
2023/07/04 04:17:13;;;;;;;2.90;2.30;;;23.00;57.50;;;;;;5077215;28;20235;-48
2023/07/04 04:19:38;;;;;;;3.87;2.30;;;23.00;57.30;;;;;;5060950;28;20527;-49
2023/07/04 04:22:04;;;;;;;2.80;2.50;;;23.10;57.10;;;;;;5055622;28;21003;-49
2023/07/04 04:24:29;;;;;;;5.03;2.13;;;23.20;56.70;;;;;;5059149;28;20192;-48
2023/07/04 04:26:57;;;;;;;2.37;2.10;;;23.30;56.30;;;;;;5063183;28;20660;-48
2023/07/04 04:29:22;;;;;;;3.40;2.90;;;23.20;56.40;;;;;;5062636;28;21174;-48
2023/07/04 04:31:48;;;;;;;2.40;2.07;;;23.20;56.60;;;;;;5070601;28;20448;-47
2023/07/04 04:34:16;;;;;;;4.60;2.33;;;23.30;56.30;;;;;;5063289;28;20198;-52
2023/07/04 04:36:42;;;;;;;2.40;1.90;;;23.50;55.90;;;;;;5065741;28;20474;-46
2023/07/04 04:39:08;;;;;;;2.50;2.10;;;23.60;55.70;;;;;;5068906;28;20513;-52
2023/07/04 04:41:34;;;;;;;3.00;2.10;;;23.60;55.70;;;;;;5077364;28;20192;-46
2023/07/04 04:44:04;;;;;;;3.63;1.90;;;23.50;55.70;;;;;;5078158;28;20188;-49
2023/07/04 04:46:30;;;;;;;1.97;1.70;;;23.60;55.50;;;;;;5071662;28;20973;-48
2023/07/04 04:48:58;;;;;;;4.23;2.20;;;23.60;55.60;;;;;;5070380;28;20430;-46
2023/07/04 04:51:24;;;;;;;2.43;2.20;;;23.40;56.10;;;;;;5072500;28;20485;-47
2023/07/04 04:53:50;;;;;;;2.10;1.90;;;23.50;56.10;;;;;;5056093;28;20435;-46
2023/07/04 04:56:16;;;;;;;2.67;2.30;;;23.40;56.20;;;;;;5070097;28;20988;-47
2023/07/04 04:58:43;;;;;;;2.40;2.20;;;23.50;56.10;;;;;;5064420;28;20230;-48
2023/07/04 05:01:17;;;;;;;3.57;2.30;;;23.50;55.90;;;;;;5063058;28;20193;-46
2023/07/04 05:03:49;;;;;;;3.33;2.23;;;23.70;55.70;;;;;;5069030;28;21004;-48
2023/07/04 05:06:15;;;;;;;2.33;1.80;;;23.80;55.40;;;;;;5059967;28;20433;-50
2023/07/04 05:08:41;;;;;;;2.07;1.90;;;23.90;55.10;;;;;;5069650;28;20449;-47
2023/07/04 05:11:07;;;;;;;2.57;1.83;;;24.00;55.00;;;;;;5059754;28;20430;-49
2023/07/04 05:13:38;;;;;;;2.53;1.50;;;24.00;54.90;;;;;;5068532;28;20249;-47
2023/07/04 05:16:07;;;;;;;3.23;2.30;;;24.10;54.60;;;;;;5077857;28;20928;-48
2023/07/04 05:18:35;;;;;;;2.53;2.33;;;24.30;54.50;;;;;;5071431;28;20531;-46
2023/07/04 05:21:12;;;;;;;3.00;1.87;;;24.30;54.20;;;;;;5068488;28;20449;-46
2023/07/04 05:23:40;;;;;;;2.43;2.07;;;24.50;53.90;;;;;;5064924;28;20468;-46
2023/07/04 05:26:08;;;;;;;2.30;2.10;;;24.60;53.60;;;;;;5054494;28;20445;-47
2023/07/04 05:28:35;;;;;;;2.27;2.00;;;24.70;52.60;;;;;;5055862;28;20459;-49
2023/07/04 05:31:11;;;;;;;6.43;2.83;;;25.00;51.90;;;;;;5063018;28;20438;-48
2023/07/04 05:33:37;;;;;;;3.87;2.90;;;25.20;51.30;;;;;;5066325;28;20454;-46
2023/07/04 05:36:18;;;;;;;4.40;2.47;;;25.40;51.30;;;;;;5075289;28;20437;-47
2023/07/04 05:38:46;;;;;;;3.33;2.00;;;25.50;51.20;;;;;;5069771;28;20228;-50
2023/07/04 05:41:14;;;;;;;2.30;2.10;;;25.60;51.00;;;;;;5068699;28;20913;-49
2023/07/04 05:43:41;;;;;;;2.73;2.10;;;25.70;50.70;;;;;;5074381;28;20875;-48
2023/07/04 05:46:08;;;;;;;2.40;2.20;;;25.60;50.90;;;;;;5073600;28;20446;-46
2023/07/04 05:48:35;;;;;;;4.33;2.47;;;25.60;50.60;;;;;;5070291;28;20427;-48
2023/07/04 05:51:03;;;;;;;2.70;2.20;;;25.80;50.30;;;;;;5073642;28;20446;-48
2023/07/04 05:53:31;;;;;;;2.87;2.43;;;25.90;49.90;;;;;;5069432;28;20425;-49
2023/07/04 05:56:16;;;;;;;3.03;2.50;;;25.80;49.60;;;;;;5067008;28;20472;-47
2023/07/04 05:58:44;;;;;;;2.97;2.70;;;25.90;49.70;;;;;;5074038;28;20499;-49
2023/07/04 06:01:18;;;;;;;4.47;2.50;;;25.90;49.20;;;;;;5067820;28;20470;-49
2023/07/04 06:03:43;;;;;;;4.43;3.00;;;25.90;49.10;;;;;;5067859;28;20456;-47
2023/07/04 06:06:24;;;;;;;3.90;2.17;;;26.00;49.10;;;;;;5074147;28;20438;-48
2023/07/04 06:08:51;;;;;;;3.67;2.43;;;26.10;48.90;;;;;;5065122;28;20754;-50
2023/07/04 06:11:19;;;;;;;6.00;2.60;;;26.10;48.80;;;;;;5078544;28;20426;-47
2023/07/04 06:13:44;;;;;;;4.23;2.37;;;26.20;48.90;;;;;;5070483;28;20438;-47
2023/07/04 06:16:10;;;;;;;6.20;2.60;;;26.10;49.00;;;;;;5062537;28;20458;-48
2023/07/04 06:18:36;;;;;;;3.07;2.30;;;26.10;49.10;;;;;;5063919;28;20227;-48
2023/07/04 06:21:10;;;;;;;3.77;2.60;;;26.20;48.70;;;;;;5057697;28;20314;-48
2023/07/04 06:23:37;;;;;;;3.33;2.50;;;26.40;48.40;;;;;;5059849;28;20206;-51
2023/07/04 06:26:03;;;;;;;9.53;2.50;;;26.40;48.30;;;;;;5059016;28;20528;-52
2023/07/04 06:28:29;;;;;;;3.17;2.20;;;26.40;48.20;;;;;;5056314;28;20454;-46
2023/07/04 06:30:55;;;;;;;5.43;2.10;;;26.30;48.50;;;;;;5076448;28;21003;-48
2023/07/04 06:33:20;;;;;;;2.47;2.27;;;26.20;48.00;;;;;;5073197;28;20204;-48
2023/07/04 06:35:46;;;;;;;3.27;2.30;;;26.20;47.60;;;;;;5066007;28;20189;-49
2023/07/04 06:38:12;;;;;;;5.03;2.90;;;26.10;48.30;;;;;;5058612;28;20228;-48
2023/07/04 06:40:37;;;;;;;3.73;2.70;;;26.30;48.10;;;;;;5065986;28;21514;-48
2023/07/04 06:43:04;;;;;;;3.20;2.67;;;26.30;47.20;;;;;;5069753;28;20760;-49
2023/07/04 06:45:31;;;;;;;3.77;3.10;;;26.50;47.10;;;;;;5081482;28;20222;-48
2023/07/04 06:47:57;;;;;;;4.50;2.93;;;26.50;47.10;;;;;;5067498;28;20442;-52
2023/07/04 06:50:22;;;;;;;18.63;3.90;;;26.50;45.30;;;;;;5068856;28;20810;-51
2023/07/04 06:52:48;;;;;;;11.10;3.57;;;26.50;44.10;;;;;;5081044;28;20666;-50
2023/07/04 06:55:14;;;;;;;10.67;3.10;;;26.40;44.40;;;;;;5056544;28;20310;-48
2023/07/04 06:57:39;;;;;;;4.90;2.50;;;26.60;43.70;;;;;;5069559;28;20638;-49
2023/07/04 07:00:05;;;;;;;5.10;2.70;;;26.60;44.60;;;;;;5076984;28;20214;-48
2023/07/04 07:02:32;;;;;;;11.10;3.27;;;26.50;43.50;;;;;;5057972;28;20192;-47
2023/07/04 07:04:58;;;;;;;6.87;3.27;;;26.60;42.50;;;;;;5066555;28;20460;-49
2023/07/04 07:07:23;;;;;;;5.40;3.33;;;26.70;41.90;;;;;;5071103;28;20430;-50
2023/07/04 07:09:49;;;;;;;4.40;3.10;;;26.80;41.60;;;;;;5063386;28;20246;-50
2023/07/04 07:12:15;;;;;;;15.23;5.17;;;26.80;41.60;;;;;;5062688;28;20219;-51
2023/07/04 07:14:41;;;;;;;12.30;4.00;;;26.80;41.90;;;;;;5063549;28;20302;-48
2023/07/04 07:17:07;;;;;;;9.70;3.67;;;26.90;42.00;;;;;;5072450;28;20188;-48
2023/07/04 07:19:33;;;;;;;6.73;3.43;;;26.90;41.60;;;;;;5068850;28;20734;-49
2023/07/04 07:22:00;;;;;;;4.80;3.10;;;26.90;40.60;;;;;;5067976;28;20521;-48
2023/07/04 07:24:27;;;;;;;6.70;2.97;;;26.80;40.20;;;;;;5069577;28;20426;-50
2023/07/04 07:26:53;;;;;;;8.80;3.43;;;26.80;40.40;;;;;;5066908;28;20439;-47
2023/07/04 07:29:19;;;;;;;5.93;3.50;;;26.90;40.20;;;;;;5069181;28;20980;-48
2023/07/04 07:31:44;;;;;;;5.43;3.43;;;27.00;40.50;;;;;;5069847;28;20379;-49
2023/07/04 07:34:10;;;;;;;6.17;3.30;;;27.20;40.30;;;;;;5071708;28;20203;-47
2023/07/04 07:36:41;;;;;;;7.40;3.83;;;27.20;40.10;;;;;;5073145;28;20192;-48
2023/07/04 07:39:09;;;;;;;3.67;3.37;;;27.20;40.30;;;;;;5066139;28;20337;-49
2023/07/04 07:41:38;;;;;;;5.43;3.37;;;27.20;40.20;;;;;;5072353;28;20607;-48
2023/07/04 07:44:07;;;;;;;9.37;4.47;;;27.30;40.00;;;;;;5072128;28;20451;-49
2023/07/04 07:46:33;;;;;;;7.80;3.53;;;27.40;40.40;;;;;;5082061;28;20450;-50
2023/07/04 07:48:59;;;;;;;7.83;4.17;;;27.40;39.70;;;;;;5070485;28;20484;-47
2023/07/04 07:51:25;;;;;;;9.20;4.00;;;27.30;39.40;;;;;;5070458;28;21278;-48
2023/07/04 07:53:54;;;;;;;4.00;3.00;;;27.40;39.20;;;;;;5069140;28;20195;-49
2023/07/04 07:56:21;;;;;;;7.50;4.17;;;27.30;39.40;;;;;;5073440;28;20515;-48
2023/07/04 07:58:47;;;;;;;5.07;3.07;;;27.20;40.40;;;;;;5072362;28;20490;-49
2023/07/04 08:01:22;;;;;;;8.37;3.90;;;27.00;40.80;;;;;;5072353;28;20419;-49
2023/07/04 08:03:48;;;;;;;4.30;3.23;;;27.20;40.90;;;;;;5070959;28;20460;-50
2023/07/04 08:06:26;;;;;;;9.77;4.30;;;27.40;40.80;;;;;;5072460;28;20430;-48
2023/07/04 08:08:53;;;;;;;5.33;3.57;;;27.50;40.50;;;;;;5079427;28;20286;-48
2023/07/04 08:11:20;;;;;;;11.80;3.93;;;27.60;40.80;;;;;;5072660;28;20939;-48
2023/07/04 08:13:46;;;;;;;8.10;4.70;;;27.60;39.80;;;;;;5064983;28;20454;-50
2023/07/04 08:16:17;;;;;;;9.73;4.50;;;27.60;39.00;;;;;;5059099;28;20807;-48
2023/07/04 08:18:43;;;;;;;9.47;4.57;;;27.50;39.10;;;;;;5071130;28;20494;-49
2023/07/04 08:21:08;;;;;;;7.40;3.80;;;27.40;39.40;;;;;;5074237;28;20838;-48
2023/07/04 08:23:34;;;;;;;6.73;3.80;;;27.30;39.10;;;;;;5068077;28;20646;-49
2023/07/04 08:26:00;;;;;;;12.07;5.17;;;27.50;39.10;;;;;;5071939;28;20187;-50
2023/07/04 08:28:26;;;;;;;10.17;4.40;;;27.50;39.50;;;;;;5076825;28;20555;-47
2023/07/04 08:30:52;;;;;;;18.67;4.87;;;27.50;38.80;;;;;;5069556;28;20634;-52
2023/07/04 08:33:18;;;;;;;10.10;4.17;;;27.50;39.40;;;;;;5072272;28;20896;-49
2023/07/04 08:35:58;;;;;;;10.03;4.30;;;27.70;39.50;;;;;;5076117;28;20942;-47
2023/07/04 08:38:24;;;;;;;7.77;4.00;;;27.80;39.20;;;;;;5072410;28;20862;-48
2023/07/04 08:40:50;;;;;;;10.80;4.23;;;27.70;39.10;;;;;;5066922;28;20791;-48
2023/07/04 08:43:48;;;;;;;9.20;4.23;;;27.90;39.00;;;;;;5070335;28;20442;-54
2023/07/04 08:46:15;;;;;;;7.77;4.30;;;27.90;38.80;;;;;;5047457;28;20438;-48
2023/07/04 08:48:42;;;;;;;7.80;4.80;;;28.10;38.40;;;;;;5071443;28;20422;-49
2023/07/04 08:51:12;;;;;;;5.20;4.67;;;28.00;38.30;;;;;;5066004;28;21405;-48
2023/07/04 08:53:41;;;;;;;5.13;4.23;;;28.00;38.70;;;;;;5078518;28;20795;-47
2023/07/04 08:56:34;;;;;;;6.57;4.40;;;28.10;38.00;;;;;;5061813;28;20532;-48
2023/07/04 08:59:09;;;;;;;7.47;5.00;;;28.10;37.40;;;;;;5060506;28;20581;-51
2023/07/04 09:01:59;;;;;;;7.10;4.80;;;28.10;38.00;;;;;;5065992;28;20453;-49
2023/07/04 09:04:52;;;;;;;8.10;5.03;;;28.40;38.30;;;;;;5073876;28;20446;-48
2023/07/04 09:07:23;;;;;;;11.80;5.23;;;28.70;37.70;;;;;;5063190;28;20488;-49
2023/07/04 09:10:18;;;;;;;5.53;4.93;;;28.70;37.20;;;;;;5071624;28;20460;-48
2023/07/04 09:12:45;;;;;;;12.07;5.73;;;28.80;36.20;;;;;;5065219;28;20490;-49
2023/07/04 09:17:46;;;;;;;7.50;6.00;;;28.90;36.50;;;;;;4987524;28;21229;-52
2023/07/04 09:20:11;;;;;;;8.00;5.57;;;29.10;36.60;;;;;;4991080;28;20992;-47
2023/07/04 09:22:37;;;;;;;9.90;5.00;;;29.30;35.60;;;;;;4988194;28;20528;-48
2023/07/04 09:25:04;;;;;;;4.70;4.30;;;29.60;35.40;;;;;;4989842;28;20187;-52
2023/07/04 09:27:30;;;;;;;15.10;5.73;;;30.00;35.10;;;;;;4988885;28;20225;-50
2023/07/04 09:29:57;;;;;;;9.87;5.77;;;30.20;34.80;;;;;;4990821;28;20453;-50
2023/07/04 09:32:22;;;;;;;6.67;5.80;;;30.50;34.10;;;;;;4990793;28;20201;-51
2023/07/04 09:34:53;;;;;;;7.77;5.17;;;30.50;34.10;;;;;;4983678;28;20516;-51
2023/07/04 09:37:22;;;;;;;7.90;5.90;;;30.60;33.80;;;;;;4988290;28;20216;-55
2023/07/04 09:39:57;;;;;;;9.97;5.87;;;30.80;33.20;;;;;;4971362;28;20454;-56
2023/07/04 09:42:30;;;;;;;8.73;5.73;;;31.10;32.60;;;;;;4985638;28;20452;-53
2023/07/04 09:44:56;;;;;;;6.30;5.50;;;31.10;32.30;;;;;;4982502;28;20446;-51
2023/07/04 09:47:28;;;;;;;8.47;5.40;;;31.10;32.40;;;;;;4989250;28;20458;-53
2023/07/04 09:50:09;;;;;;;6.43;5.70;;;31.10;32.90;;;;;;4992438;28;20536;-48
2023/07/04 09:52:34;;;;;;;6.27;5.37;;;31.00;32.60;;;;;;4990639;28;20445;-55
2023/07/04 09:55:24;;;;;;;7.40;6.23;;;30.90;32.70;;;;;;4989990;28;20925;-53
2023/07/04 09:57:50;;;;;;;8.87;6.07;;;30.90;32.70;;;;;;4990463;28;20222;-53
2023/07/04 10:00:26;;;;;;;9.50;5.73;;;31.00;32.70;;;;;;4989356;28;20452;-49
2023/07/04 10:03:04;;;;;;;7.50;6.60;;;31.00;32.90;;;;;;4990259;28;20449;-51
2023/07/04 10:05:35;;;;;;;7.63;6.83;;;30.70;32.30;;;;;;4984104;28;20512;-56
2023/07/04 10:08:06;;;;;;;7.53;6.73;;;30.80;32.80;;;;;;4988998;28;20525;-57
2023/07/04 10:10:57;;;;;;;8.07;5.40;;;31.00;33.20;;;;;;4991179;28;20876;-54
2023/07/04 10:13:38;;;;;;;7.30;5.17;;;31.20;33.20;;;;;;4987083;28;20464;-52
2023/07/04 10:16:24;;;;;;;5.80;5.00;;;31.50;32.90;;;;;;4989597;28;20921;-51
2023/07/04 10:18:50;;;;;;;10.23;4.53;;;31.70;33.90;;;;;;4993757;28;20826;-53
2023/07/04 10:21:17;;;;;;;6.07;4.10;;;31.80;33.60;;;;;;4983374;28;20430;-54
2023/07/04 10:23:46;;;;;;;6.20;4.80;;;31.90;33.60;;;;;;4987601;28;20492;-53
2023/07/04 10:26:14;;;;;;;6.10;4.23;;;31.80;33.20;;;;;;4989142;28;20425;-55
2023/07/04 10:28:41;;;;;;;4.87;4.37;;;31.70;33.60;;;;;;4982151;28;20434;-54
2023/07/04 10:31:17;;;;;;;7.73;4.90;;;31.60;33.80;;;;;;4988310;28;20450;-54
2023/07/04 10:33:57;;;;;;;6.67;5.10;;;31.70;34.20;;;;;;4986707;28;20652;-52
2023/07/04 10:36:31;;;;;;;5.33;4.67;;;31.70;33.40;;;;;;4988245;28;20422;-54
2023/07/04 10:39:03;;;;;;;5.00;4.37;;;31.70;33.00;;;;;;4989514;28;20532;-51
2023/07/04 10:41:45;;;;;;;9.90;5.63;;;31.60;33.60;;;;;;4989388;28;20795;-52
2023/07/04 10:44:23;;;;;;;7.50;5.30;;;31.70;33.90;;;;;;4984819;28;20577;-56
2023/07/04 10:47:02;;;;;;;8.97;5.67;;;31.80;33.30;;;;;;4986418;28;20558;-54
2023/07/04 10:49:35;;;;;;;10.17;5.27;;;31.90;32.60;;;;;;5007845;28;20457;-52
2023/07/04 10:52:13;;;;;;;8.50;5.37;;;32.10;32.80;;;;;;4992254;28;20980;-55
2023/07/04 10:54:39;;;;;;;6.73;5.83;;;32.10;31.90;;;;;;4987350;28;20524;-53
2023/07/04 10:57:11;;;;;;;8.60;5.97;;;32.10;31.50;;;;;;4989097;28;20628;-53
2023/07/04 10:59:44;;;;;;;9.10;5.83;;;32.10;31.30;;;;;;4988599;28;20464;-54
2023/07/04 11:02:31;;;;;;;6.07;5.43;;;32.10;31.90;;;;;;4989401;28;20823;-54
2023/07/04 11:05:08;;;;;;;9.00;5.30;;;32.00;32.90;;;;;;4991897;28;20546;-57
2023/07/04 11:07:39;;;;;;;7.47;5.87;;;32.10;32.40;;;;;;4989328;28;20540;-53
2023/07/04 11:10:09;;;;;;;5.90;5.07;;;32.20;32.10;;;;;;4992619;28;20519;-52
2023/07/04 11:12:37;;;;;;;6.93;5.73;;;32.20;31.10;;;;;;4988213;28;20462;-50
2023/07/04 11:15:16;;;;;;;6.13;5.57;;;32.20;31.20;;;;;;4992893;28;20442;-54
2023/07/04 11:17:43;;;;;;;7.23;5.63;;;32.20;31.20;;;;;;4989677;28;20987;-50
2023/07/04 11:20:18;;;;;;;10.77;6.13;;;32.10;31.50;;;;;;4999666;28;20426;-52
2023/07/04 11:22:57;;;;;;;6.23;5.57;;;31.70;31.10;;;;;;4991529;28;20463;-53
2023/07/04 11:25:42;;;;;;;6.87;5.80;;;31.60;31.00;;;;;;4990318;28;20499;-54
2023/07/04 11:28:12;;;;;;;8.90;5.80;;;31.10;32.00;;;;;;4986879;28;20883;-54
2023/07/04 11:30:41;;;;;;;8.13;5.50;;;31.20;31.70;;;;;;4991621;28;20446;-56
2023/07/04 11:33:07;;;;;;;6.67;5.17;;;31.30;31.60;;;;;;4990655;28;20533;-56
2023/07/04 11:35:34;;;;;;;7.47;5.67;;;31.70;31.50;;;;;;4991629;28;20484;-54
2023/07/04 11:38:15;;;;;;;7.03;6.17;;;31.60;31.30;;;;;;4982643;28;20514;-54
2023/07/04 11:40:45;;;;;;;6.30;5.73;;;31.80;31.00;;;;;;4989269;28;20567;-51
2023/07/04 11:43:29;;;;;;;6.47;5.20;;;31.70;30.80;;;;;;4985365;28;21301;-53
2023/07/04 11:45:56;;;;;;;6.13;5.53;;;31.60;31.40;;;;;;4981713;28;20492;-53
2023/07/04 11:48:26;;;;;;;7.47;6.27;;;31.30;31.60;;;;;;4980706;28;20528;-54
2023/07/04 11:50:59;;;;;;;9.30;5.33;;;31.40;31.50;;;;;;4986952;28;20507;-54
2023/07/04 11:53:38;;;;;;;9.63;6.17;;;31.40;31.50;;;;;;4982459;28;21026;-55
2023/07/04 11:56:26;;;;;;;7.03;6.40;;;31.60;31.90;;;;;;4985400;28;20577;-55
2023/07/04 11:59:10;;;;;;;7.90;6.27;;;31.70;31.80;;;;;;4987001;28;20497;-55
2023/07/04 12:02:03;;;;;;;7.63;5.60;;;31.70;31.40;;;;;;4984993;28;20575;-51
2023/07/04 12:04:40;;;;;;;10.13;6.00;;;31.70;31.00;;;;;;4981335;28;20481;-52
2023/07/04 12:07:29;;;;;;;9.07;5.60;;;31.90;31.20;;;;;;4984729;28;20449;-54
2023/07/04 12:10:07;;;;;;;9.40;6.07;;;31.60;31.30;;;;;;4982980;28;20462;-54
2023/07/04 12:12:36;;;;;;;6.87;5.97;;;31.60;32.20;;;;;;4979613;28;20457;-52
2023/07/04 12:15:09;;;;;;;9.53;6.90;;;31.70;31.60;;;;;;4976990;28;20940;-55
2023/07/04 12:17:38;;;;;;;6.70;5.60;;;31.80;31.20;;;;;;4978348;28;20481;-51
2023/07/04 12:20:09;;;;;;;8.37;6.23;;;31.80;31.20;;;;;;4977622;28;20489;-52
2023/07/04 12:22:36;;;;;;;6.33;5.73;;;31.70;31.30;;;;;;4992908;28;20449;-52
2023/07/04 12:25:11;;;;;;;8.17;6.20;;;31.90;31.00;;;;;;4981998;28;20497;-55
2023/07/04 12:27:39;;;;;;;5.67;5.17;;;31.90;31.10;;;;;;4984682;28;20449;-50
2023/07/04 12:30:11;;;;;;;6.90;5.77;;;32.00;31.70;;;;;;4992008;28;20932;-51
2023/07/04 12:32:37;;;;;;;7.37;6.13;;;32.10;31.20;;;;;;4981781;28;20449;-52
2023/07/04 12:35:04;;;;;;;7.03;6.27;;;32.10;30.80;;;;;;4982639;28;20454;-54
2023/07/04 12:37:36;;;;;;;9.00;6.00;;;32.10;31.10;;;;;;4983201;28;20291;-51
2023/07/04 12:40:04;;;;;;;8.33;5.63;;;32.10;31.90;;;;;;4978265;28;20454;-55
2023/07/04 12:42:31;;;;;;;6.87;5.63;;;32.20;31.50;;;;;;4978084;28;20537;-49
2023/07/04 12:44:57;;;;;;;11.53;5.77;;;32.30;31.50;;;;;;4978008;28;21133;-52
2023/07/04 12:47:31;;;;;;;6.57;5.73;;;32.50;30.90;;;;;;4990292;28;20581;-51
2023/07/04 12:50:00;;;;;;;6.13;5.53;;;32.70;29.80;;;;;;4976492;28;20448;-50
2023/07/04 12:52:33;;;;;;;6.83;5.70;;;32.60;29.80;;;;;;4981534;28;20814;-52
2023/07/04 12:55:01;;;;;;;6.17;5.57;;;32.50;29.30;;;;;;4986502;28;20580;-49
2023/07/04 12:57:28;;;;;;;8.40;5.70;;;32.40;29.40;;;;;;4979465;28;20590;-54
2023/07/04 13:00:09;;;;;;;7.10;5.70;;;32.40;29.60;;;;;;4983995;28;20937;-54